Newberg, Oregon
Current Conditions -  °F | °C
As of 4:53 AM on Sunday 23 Nov 2014 (Local Time) from KUAO Reporting Station
Overcast Overcast  
Wind Chill: 42°   Ceiling: 11000
Heat Index: 48°   Visibility: 10mi
Dew Point: 44°   Wind: 14mph
Humidity: 86%   Direction: 200°SSW
Pressure: 30.29"   Gusts: NA
Location:  45.3°N, 122.97°W
Report Text: KUAO 231253Z AUTO 20012KT 10SM OVC110 09/07 A3029 RMK AO2 RAB07E26 SLP258 P0000 T00890067
Loading
Personal Weather Stations






























Interactive Weather Map New forecast layout! Learn more

10-Day Weather Forecast

Advertisements
Track Severe Weather on mobile